| time (UTC) | temp F | wind direction | speed MPH | gust MPH | rain 1hr in | rain 24hr in | rain mn in | humidity % | barometer mb |
| 20260510213929 | 76 | 201 | 4.0 | 6.0 | 0.00 | 0.00 | 0.00 | 84 | 1016.0 |
| 20260510213429 | 76 | 203 | 4.0 | 5.0 | 0.00 | 0.00 | 0.00 | 84 | 1016.0 |
| 20260510212929 | 76 | 193 | 4.0 | 4.0 | 0.00 | 0.00 | 0.00 | 83 | 1016.0 |
| 20260510212429 | 76 | 171 | 4.0 | 6.0 | 0.00 | 0.00 | 0.00 | 83 | 1016.0 |
| 20260510211932 | 76 | 183 | 4.0 | 5.0 | 0.00 | 0.00 | 0.00 | 83 | 1016.0 |
| 20260510211430 | 76 | 183 | 3.0 | 5.0 | 0.00 | 0.00 | 0.00 | 83 | 1016.0 |
| 20260510210929 | 76 | 181 | 3.0 | 5.0 | 0.00 | 0.00 | 0.00 | 83 | 1016.0 |
| 20260510210429 | 76 | 179 | 3.0 | 5.0 | 0.00 | 0.00 | 0.00 | 84 | 1016.0 |
| 20260510205929 | 76 | 181 | 3.0 | 4.0 | 0.00 | 0.00 | 0.00 | 84 | 1016.0 |
| 20260510205429 | 76 | 191 | 3.0 | 6.0 | 0.00 | 0.00 | 0.00 | 84 | 1016.0 |
| 20260510204929 | 76 | 177 | 3.0 | 4.0 | 0.00 | 0.00 | 0.00 | 83 | 1016.0 |
| 20260510204429 | 76 | 176 | 3.0 | 5.0 | 0.00 | 0.00 | 0.00 | 83 | 1016.0 |
| 20260510203929 | 76 | 173 | 3.0 | 5.0 | 0.00 | 0.00 | 0.00 | 83 | 1016.0 |
| 20260510203429 | 76 | 183 | 3.0 | 4.0 | 0.00 | 0.00 | 0.00 | 83 | 1016.0 |
| 20260510202929 | 76 | 179 | 4.0 | 5.0 | 0.00 | 0.00 | 0.00 | 83 | 1016.0 |
| 20260510202429 | 76 | 164 | 4.0 | 7.0 | 0.00 | 0.00 | 0.00 | 83 | 1016.0 |
| 20260510201929 | 76 | 181 | 3.0 | 5.0 | 0.00 | 0.00 | 0.00 | 82 | 1016.0 |
| 20260510201430 | 76 | 154 | 4.0 | 6.0 | 0.00 | 0.00 | 0.00 | 82 | 1016.0 |
| 20260510200929 | 76 | 167 | 4.0 | 6.0 | 0.00 | 0.00 | 0.00 | 82 | 1016.0 |
| 20260510200429 | 76 | 162 | 5.0 | 8.0 | 0.00 | 0.00 | 0.00 | 82 | 1016.0 |
| 20260510195929 | 76 | 170 | 5.0 | 7.0 | 0.00 | 0.00 | 0.00 | 82 | 1016.0 |
| 20260510195429 | 76 | 150 | 4.0 | 7.0 | 0.00 | 0.00 | 0.00 | 82 | 1016.0 |
| 20260510194929 | 76 | 162 | 6.0 | 8.0 | 0.00 | 0.00 | 0.00 | 81 | 1016.0 |
| 20260510194429 | 76 | 164 | 5.0 | 6.0 | 0.00 | 0.00 | 0.00 | 82 | 1016.0 |
| 20260510193929 | 76 | 181 | 5.0 | 6.0 | 0.00 | 0.00 | 0.00 | 82 | 1016.0 |
| 20260510193429 | 76 | 155 | 5.0 | 7.0 | 0.00 | 0.00 | 0.00 | 82 | 1016.0 |
| 20260510192929 | 76 | 150 | 4.0 | 6.0 | 0.00 | 0.00 | 0.00 | 82 | 1016.0 |
| 20260510192429 | 76 | 146 | 5.0 | 6.0 | 0.00 | 0.00 | 0.00 | 82 | 1016.0 |
| 20260510191929 | 76 | 141 | 4.0 | 7.0 | 0.00 | 0.00 | 0.00 | 82 | 1016.0 |
| 20260510191430 | 76 | 147 | 4.0 | 6.0 | 0.00 | 0.00 | 0.00 | 81 | 1016.0 |
| 20260510190929 | 76 | 166 | 4.0 | 7.0 | 0.00 | 0.00 | 0.00 | 82 | 1016.0 |
| 20260510190429 | 76 | 143 | 3.0 | 4.0 | 0.00 | 0.00 | 0.00 | 82 | 1017.0 |
| 20260510185929 | 76 | 152 | 4.0 | 6.0 | 0.00 | 0.00 | 0.00 | 82 | 1017.0 |
| 20260510185429 | 76 | 160 | 4.0 | 6.0 | 0.00 | 0.00 | 0.00 | 82 | 1017.0 |
| 20260510184929 | 76 | 139 | 5.0 | 8.0 | 0.00 | 0.00 | 0.00 | 83 | 1017.0 |
| 20260510184429 | 76 | 149 | 5.0 | 6.0 | 0.00 | 0.00 | 0.00 | 83 | 1017.0 |
| 20260510183931 | 76 | 142 | 5.0 | 7.0 | 0.00 | 0.00 | 0.00 | 83 | 1017.0 |
| 20260510183429 | 76 | 156 | 3.0 | 5.0 | 0.00 | 0.00 | 0.00 | 83 | 1017.0 |
| 20260510182930 | 76 | 135 | 4.0 | 6.0 | 0.00 | 0.00 | 0.00 | 82 | 1017.0 |
| 20260510182429 | 76 | 148 | 4.0 | 6.0 | 0.00 | 0.00 | 0.00 | 82 | 1017.0 |
| 20260510181929 | 76 | 141 | 4.0 | 6.0 | 0.00 | 0.00 | 0.00 | 82 | 1017.0 |
| 20260510181429 | 76 | 142 | 3.0 | 5.0 | 0.00 | 0.00 | 0.00 | 83 | 1017.0 |
| 20260510180929 | 76 | 159 | 4.0 | 6.0 | 0.00 | 0.00 | 0.00 | 83 | 1017.0 |
| 20260510180429 | 76 | 153 | 3.0 | 6.0 | 0.00 | 0.00 | 0.00 | 83 | 1017.0 |
| 20260510175929 | 75 | 161 | 4.0 | 6.0 | 0.00 | 0.00 | 0.00 | 83 | 1017.0 |
| 20260510175429 | 75 | 168 | 4.0 | 8.0 | 0.00 | 0.00 | 0.00 | 83 | 1017.0 |
| 20260510174929 | 75 | 167 | 4.0 | 6.0 | 0.00 | 0.00 | 0.00 | 83 | 1017.0 |
| 20260510174429 | 76 | 168 | 3.0 | 6.0 | 0.00 | 0.00 | 0.00 | 83 | 1017.0 |
| 20260510173930 | 76 | 161 | 4.0 | 6.0 | 0.00 | 0.00 | 0.00 | 83 | 1017.0 |
| 20260510173429 | 76 | 148 | 5.0 | 6.0 | 0.00 | 0.00 | 0.00 | 83 | 1017.0 |
| 20260510172929 | 76 | 148 | 5.0 | 7.0 | 0.00 | 0.00 | 0.00 | 83 | 1017.0 |
| 20260510172429 | 76 | 149 | 4.0 | 6.0 | 0.00 | 0.00 | 0.00 | 83 | 1017.0 |
| 20260510171929 | 76 | 142 | 5.0 | 7.0 | 0.00 | 0.00 | 0.00 | 83 | 1017.0 |
| 20260510171429 | 76 | 139 | 5.0 | 7.0 | 0.00 | 0.00 | 0.00 | 82 | 1017.0 |
| 20260510170929 | 76 | 133 | 5.0 | 8.0 | 0.00 | 0.00 | 0.00 | 82 | 1017.0 |
| 20260510170429 | 76 | 122 | 5.0 | 7.0 | 0.00 | 0.00 | 0.00 | 82 | 1017.0 |
| 20260510165929 | 76 | 120 | 5.0 | 9.0 | 0.00 | 0.00 | 0.00 | 83 | 1017.0 |
| 20260510165429 | 76 | 123 | 5.0 | 7.0 | 0.00 | 0.00 | 0.00 | 83 | 1017.0 |
| 20260510164929 | 76 | 118 | 5.0 | 8.0 | 0.00 | 0.00 | 0.00 | 83 | 1017.0 |
| 20260510164429 | 76 | 107 | 6.0 | 8.0 | 0.00 | 0.00 | 0.00 | 84 | 1017.0 |
| 20260510163929 | 76 | 128 | 5.0 | 8.0 | 0.00 | 0.00 | 0.00 | 84 | 1017.0 |
| 20260510163429 | 76 | 115 | 5.0 | 8.0 | 0.00 | 0.00 | 0.00 | 84 | 1017.0 |
| 20260510162929 | 76 | 110 | 6.0 | 8.0 | 0.00 | 0.00 | 0.00 | 84 | 1017.0 |
| 20260510162429 | 76 | 114 | 6.0 | 8.0 | 0.00 | 0.00 | 0.00 | 84 | 1017.0 |
| 20260510161931 | 76 | 113 | 6.0 | 9.0 | 0.00 | 0.00 | 0.00 | 84 | 1017.0 |
| 20260510160948 | 76 | 104 | 6.0 | 9.0 | 0.00 | 0.00 | 0.00 | 84 | 1017.0 |
| 20260510160429 | 76 | 95 | 7.0 | 10.0 | 0.00 | 0.00 | 0.00 | 84 | 1017.0 |
| 20260510155527 | 76 | 88 | 6.0 | 8.0 | 0.00 | 0.00 | 0.00 | 85 | 1017.0 |
| 20260510154929 | 75 | 97 | 9.0 | 11.0 | 0.00 | 0.00 | 0.00 | 86 | 1017.0 |
| 20260510154429 | 75 | 95 | 8.0 | 11.0 | 0.00 | 0.00 | 0.00 | 86 | 1017.0 |
| 20260510153934 | 75 | 94 | 7.0 | 10.0 | 0.00 | 0.00 | 0.00 | 87 | 1017.0 |
| 20260510153429 | 75 | 96 | 7.0 | 10.0 | 0.00 | 0.00 | 0.00 | 88 | 1017.0 |
| 20260510152929 | 75 | 87 | 7.0 | 10.0 | 0.00 | 0.00 | 0.00 | 88 | 1017.0 |
| 20260510152430 | 75 | 90 | 6.0 | 9.0 | 0.00 | 0.00 | 0.00 | 89 | 1017.0 |
| 20260510151930 | 75 | 91 | 6.0 | 9.0 | 0.00 | 0.00 | 0.00 | 89 | 1017.0 |
| 20260510151430 | 75 | 97 | 7.0 | 9.0 | 0.00 | 0.00 | 0.00 | 89 | 1017.0 |
| 20260510150929 | 75 | 98 | 6.0 | 9.0 | 0.00 | 0.00 | 0.00 | 90 | 1017.0 |
| 20260510150430 | 75 | 88 | 6.0 | 9.0 | 0.00 | 0.00 | 0.00 | 90 | 1017.0 |
| 20260510145929 | 75 | 100 | 6.0 | 9.0 | 0.00 | 0.00 | 0.00 | 90 | 1017.0 |
| 20260510145429 | 74 | 96 | 5.0 | 9.0 | 0.00 | 0.00 | 0.00 | 91 | 1017.0 |
| 20260510144929 | 74 | 100 | 5.0 | 7.0 | 0.00 | 0.00 | 0.00 | 91 | 1017.0 |
| 20260510144429 | 74 | 100 | 6.0 | 9.0 | 0.00 | 0.00 | 0.00 | 91 | 1017.0 |
| 20260510143929 | 74 | 98 | 5.0 | 8.0 | 0.00 | 0.00 | 0.00 | 91 | 1017.0 |
| 20260510143429 | 74 | 98 | 5.0 | 8.0 | 0.00 | 0.00 | 0.00 | 92 | 1017.0 |
| 20260510142930 | 74 | 103 | 4.0 | 7.0 | 0.00 | 0.00 | 0.00 | 92 | 1017.0 |
| 20260510142429 | 73 | 102 | 5.0 | 8.0 | 0.00 | 0.00 | 0.00 | 92 | 1017.0 |
| 20260510141930 | 73 | 100 | 4.0 | 7.0 | 0.00 | 0.00 | 0.00 | 92 | 1017.0 |
| 20260510141429 | 73 | 110 | 4.0 | 7.0 | 0.00 | 0.00 | 0.00 | 92 | 1017.0 |
| 20260510140929 | 73 | 112 | 4.0 | 6.0 | 0.00 | 0.00 | 0.00 | 93 | 1017.0 |
| 20260510140429 | 72 | 120 | 4.0 | 5.0 | 0.00 | 0.00 | 0.00 | 93 | 1017.0 |
| 20260510135929 | 72 | 109 | 4.0 | 6.0 | 0.00 | 0.00 | 0.00 | 93 | 1017.0 |
| 20260510135429 | 72 | 130 | 4.0 | 9.0 | 0.00 | 0.00 | 0.00 | 93 | 1017.0 |
| 20260510133929 | 72 | 131 | 5.0 | 10.0 | 0.00 | 0.00 | 0.00 | 93 | 1017.0 |
| 20260510133429 | 72 | 142 | 3.0 | 7.0 | 0.00 | 0.00 | 0.00 | 93 | 1017.0 |
| 20260510132930 | 72 | 106 | 3.0 | 4.0 | 0.00 | 0.00 | 0.00 | 94 | 1017.0 |
| 20260510132429 | 71 | 87 | 5.0 | 8.0 | 0.00 | 0.00 | 0.00 | 94 | 1017.0 |
| 20260510131929 | 71 | 87 | 4.0 | 7.0 | 0.00 | 0.00 | 0.00 | 94 | 1017.0 |
| 20260510131429 | 71 | 98 | 4.0 | 7.0 | 0.00 | 0.00 | 0.00 | 94 | 1017.0 |
| 20260510130929 | 71 | 62 | 4.0 | 6.0 | 0.00 | 0.00 | 0.00 | 94 | 1017.0 |
| 20260510130430 | 70 | 321 | 4.0 | 5.0 | 0.00 | 0.00 | 0.00 | 94 | 1017.0 |
| 20260510125929 | 70 | 28 | 4.0 | 4.0 | 0.00 | 0.00 | 0.00 | 94 | 1017.0 |
| 20260510125429 | 70 | 106 | 5.0 | 10.0 | 0.00 | 0.00 | 0.00 | 94 | 1016.0 |
| 20260510124929 | 70 | 76 | 5.0 | 7.0 | 0.00 | 0.00 | 0.00 | 94 | 1016.0 |
| 20260510124430 | 70 | 60 | 3.0 | 7.0 | 0.00 | 0.00 | 0.00 | 94 | 1016.0 |
| 20260510123929 | 69 | 83 | 3.0 | 6.0 | 0.00 | 0.00 | 0.00 | 94 | 1016.0 |
| 20260510123429 | 69 | 217 | 4.0 | 10.0 | 0.00 | 0.00 | 0.00 | 94 | 1016.0 |
| 20260510122930 | 69 | 156 | 2.0 | 5.0 | 0.00 | 0.00 | 0.00 | 94 | 1016.0 |
| 20260510122429 | 69 | 23 | 3.0 | 5.0 | 0.00 | 0.00 | 0.00 | 94 | 1016.0 |
| 20260510121929 | 69 | 345 | 2.0 | 4.0 | 0.00 | 0.00 | 0.00 | 94 | 1016.0 |
| 20260510121429 | 69 | 173 | 2.0 | 4.0 | 0.00 | 0.00 | 0.00 | 94 | 1016.0 |
| 20260510120929 | 69 | 39 | 3.0 | 6.0 | 0.00 | 0.00 | 0.00 | 94 | 1016.0 |
| 20260510120430 | 69 | 196 | 3.0 | 6.0 | 0.00 | 0.00 | 0.00 | 94 | 1016.0 |
| 20260510115929 | 69 | 254 | 4.0 | 7.0 | 0.00 | 0.00 | 0.00 | 94 | 1016.0 |
| 20260510115430 | 69 | 35 | 3.0 | 5.0 | 0.00 | 0.00 | 0.00 | 94 | 1016.0 |
| 20260510114931 | 69 | 175 | 3.0 | 7.0 | 0.00 | 0.00 | 0.00 | 94 | 1016.0 |
| 20260510114429 | 69 | 151 | 3.0 | 4.0 | 0.00 | 0.00 | 0.00 | 94 | 1015.0 |
| 20260510113930 | 68 | 213 | 3.0 | 4.0 | 0.00 | 0.00 | 0.00 | 93 | 1015.0 |
| 20260510113430 | 68 | 187 | 2.0 | 4.0 | 0.00 | 0.00 | 0.00 | 93 | 1015.0 |
| 20260510112929 | 68 | 213 | 2.0 | 4.0 | 0.00 | 0.00 | 0.00 | 93 | 1015.0 |
| 20260510112429 | 68 | 311 | 2.0 | 3.0 | 0.00 | 0.00 | 0.00 | 93 | 1015.0 |
| 20260510111929 | 68 | 281 | 2.0 | 4.0 | 0.00 | 0.00 | 0.00 | 93 | 1015.0 |
| 20260510111430 | 68 | 133 | 3.0 | 6.0 | 0.00 | 0.00 | 0.00 | 93 | 1015.0 |
| 20260510110929 | 68 | 168 | 5.0 | 8.0 | 0.00 | 0.00 | 0.00 | 93 | 1015.0 |
| 20260510110430 | 69 | 162 | 4.0 | 10.0 | 0.00 | 0.00 | 0.00 | 93 | 1015.0 |
| 20260510105929 | 69 | 278 | 2.0 | 4.0 | 0.00 | 0.00 | 0.00 | 93 | 1015.0 |
| 20260510105429 | 69 | 303 | 2.0 | 4.0 | 0.00 | 0.00 | 0.00 | 93 | 1015.0 |
| 20260510104929 | 69 | 298 | 2.0 | 3.0 | 0.00 | 0.00 | 0.00 | 93 | 1015.0 |
| 20260510104429 | 69 | 352 | 4.0 | 5.0 | 0.00 | 0.00 | 0.00 | 93 | 1015.0 |
| 20260510103929 | 69 | 12 | 3.0 | 5.0 | 0.00 | 0.00 | 0.00 | 93 | 1015.0 |
| 20260510103429 | 69 | 79 | 3.0 | 5.0 | 0.00 | 0.00 | 0.00 | 93 | 1015.0 |
| 20260510102929 | 69 | 28 | 4.0 | 6.0 | 0.00 | 0.00 | 0.00 | 93 | 1015.0 |
| 20260510102429 | 69 | 44 | 3.0 | 4.0 | 0.00 | 0.00 | 0.00 | 93 | 1014.0 |
| 20260510101930 | 69 | 44 | 2.0 | 4.0 | 0.00 | 0.00 | 0.00 | 93 | 1014.0 |
| 20260510101429 | 69 | 30 | 3.0 | 4.0 | 0.00 | 0.00 | 0.00 | 93 | 1014.0 |
| 20260510100929 | 69 | 9 | 2.0 | 3.0 | 0.00 | 0.00 | 0.00 | 93 | 1014.0 |
| 20260510100429 | 69 | 358 | 2.0 | 3.0 | 0.00 | 0.00 | 0.00 | 93 | 1015.0 |
| 20260510095930 | 69 | 95 | 1.0 | 2.0 | 0.00 | 0.00 | 0.00 | 93 | 1014.0 |
| 20260510095429 | 69 | 57 | 1.0 | 3.0 | 0.00 | 0.00 | 0.00 | 93 | 1014.0 |
| 20260510094929 | 69 | 339 | 2.0 | 4.0 | 0.00 | 0.00 | 0.00 | 93 | 1014.0 |
| 20260510094429 | 69 | 325 | 2.0 | 3.0 | 0.00 | 0.00 | 0.00 | 93 | 1014.0 |
| 20260510093930 | 69 | 358 | 2.0 | 3.0 | 0.00 | 0.00 | 0.00 | 93 | 1014.0 |
| 20260510093429 | 69 | 26 | 1.0 | 3.0 | 0.00 | 0.00 | 0.00 | 93 | 1014.0 |
| 20260510092929 | 69 | 2 | 3.0 | 5.0 | 0.00 | 0.00 | 0.00 | 93 | 1014.0 |
| 20260510092429 | 69 | 56 | 3.0 | 4.0 | 0.00 | 0.00 | 0.00 | 93 | 1014.0 |
| 20260510091934 | 69 | 69 | 2.0 | 3.0 | 0.00 | 0.00 | 0.00 | 93 | 1014.0 |
| 20260510091429 | 70 | 156 | 2.0 | 4.0 | 0.00 | 0.00 | 0.00 | 93 | 1014.0 |
| 20260510090929 | 70 | 232 | 2.0 | 3.0 | 0.00 | 0.00 | 0.00 | 93 | 1014.0 |
| 20260510090430 | 70 | 119 | 2.0 | 3.0 | 0.00 | 0.00 | 0.00 | 93 | 1014.0 |
| 20260510085930 | 70 | 216 | 3.0 | 5.0 | 0.00 | 0.00 | 0.00 | 93 | 1014.0 |
| 20260510085429 | 70 | 70 | 2.0 | 4.0 | 0.00 | 0.00 | 0.00 | 92 | 1014.0 |
| 20260510084930 | 70 | 115 | 2.0 | 4.0 | 0.00 | 0.00 | 0.00 | 92 | 1013.0 |
| 20260510084429 | 71 | 66 | 2.0 | 4.0 | 0.00 | 0.00 | 0.00 | 92 | 1013.0 |
| 20260510083929 | 71 | 75 | 2.0 | 3.0 | 0.00 | 0.00 | 0.00 | 92 | 1013.0 |
| 20260510083429 | 71 | 67 | 3.0 | 4.0 | 0.00 | 0.00 | 0.00 | 92 | 1013.0 |
| 20260510082930 | 71 | 81 | 5.0 | 8.0 | 0.00 | 0.00 | 0.00 | 92 | 1013.0 |
| 20260510082429 | 70 | 77 | 5.0 | 8.0 | 0.00 | 0.00 | 0.00 | 92 | 1013.0 |
| 20260510081929 | 70 | 69 | 4.0 | 6.0 | 0.00 | 0.00 | 0.00 | 92 | 1013.0 |
| 20260510081429 | 70 | 68 | 3.0 | 4.0 | 0.00 | 0.00 | 0.00 | 92 | 1013.0 |
| 20260510080930 | 70 | 69 | 4.0 | 6.0 | 0.00 | 0.00 | 0.00 | 92 | 1013.0 |
| 20260510080429 | 70 | 61 | 3.0 | 5.0 | 0.00 | 0.00 | 0.00 | 92 | 1013.0 |
| 20260510075929 | 70 | 82 | 5.0 | 7.0 | 0.00 | 0.00 | 0.00 | 92 | 1013.0 |
| 20260510075429 | 70 | 79 | 2.0 | 3.0 | 0.00 | 0.00 | 0.00 | 92 | 1013.0 |
| 20260510074929 | 70 | 80 | 2.0 | 4.0 | 0.00 | 0.00 | 0.00 | 92 | 1013.0 |
| 20260510074429 | 70 | 79 | 2.0 | 4.0 | 0.00 | 0.00 | 0.00 | 92 | 1013.0 |
| 20260510073929 | 70 | 152 | 1.0 | 3.0 | 0.00 | 0.00 | 0.00 | 92 | 1013.0 |
| 20260510073430 | 70 | 81 | 2.0 | 3.0 | 0.00 | 0.00 | 0.00 | 92 | 1013.0 |
| 20260510072929 | 70 | 80 | 2.0 | 4.0 | 0.00 | 0.00 | 0.00 | 91 | 1013.0 |
| 20260510072429 | 70 | 80 | 3.0 | 4.0 | 0.00 | 0.00 | 0.00 | 91 | 1013.0 |
| 20260510071929 | 70 | 35 | 2.0 | 2.0 | 0.00 | 0.00 | 0.00 | 91 | 1013.0 |
| 20260510071429 | 70 | 65 | 1.0 | 2.0 | 0.00 | 0.00 | 0.00 | 91 | 1013.0 |
| 20260510070929 | 70 | 42 | 2.0 | 4.0 | 0.00 | 0.00 | 0.00 | 91 | 1013.0 |
| 20260510070429 | 70 | 141 | 2.0 | 3.0 | 0.00 | 0.00 | 0.00 | 91 | 1013.0 |
| 20260510065929 | 70 | 236 | 1.0 | 2.0 | 0.00 | 0.00 | 0.00 | 91 | 1013.0 |
| 20260510065429 | 70 | 219 | 1.0 | 2.0 | 0.00 | 0.00 | 0.00 | 91 | 1013.0 |
| 20260510064929 | 70 | 61 | 3.0 | 4.0 | 0.00 | 0.00 | 0.00 | 91 | 1013.0 |
| 20260510064429 | 71 | 106 | 2.0 | 3.0 | 0.00 | 0.00 | 0.00 | 91 | 1013.0 |
| 20260510063929 | 71 | 143 | 1.0 | 4.0 | 0.00 | 0.00 | 0.00 | 90 | 1013.0 |
| 20260510063429 | 71 | 55 | 3.0 | 4.0 | 0.00 | 0.00 | 0.00 | 90 | 1013.0 |
| 20260510062930 | 71 | 50 | 3.0 | 4.0 | 0.00 | 0.00 | 0.00 | 90 | 1013.0 |
| 20260510062429 | 71 | 113 | 2.0 | 3.0 | 0.00 | 0.00 | 0.00 | 90 | 1013.0 |
| 20260510061929 | 71 | 109 | 0.0 | 1.0 | 0.00 | 0.00 | 0.00 | 90 | 1013.0 |
| 20260510061429 | 71 | 198 | 2.0 | 3.0 | 0.00 | 0.00 | 0.00 | 90 | 1013.0 |
| 20260510060929 | 72 | 178 | 2.0 | 3.0 | 0.00 | 0.00 | 0.00 | 89 | 1014.0 |
| 20260510060429 | 72 | 294 | 1.0 | 2.0 | 0.00 | 0.00 | 0.00 | 89 | 1014.0 |
| 20260510055929 | 72 | 165 | 1.0 | 2.0 | 0.00 | 0.00 | 0.00 | 89 | 1014.0 |
| 20260510055429 | 72 | 211 | 3.0 | 4.0 | 0.00 | 0.00 | 0.00 | 89 | 1014.0 |
| 20260510054929 | 72 | 346 | 1.0 | 2.0 | 0.00 | 0.00 | 0.00 | 89 | 1014.0 |
| 20260510054429 | 72 | 329 | 0.0 | 1.0 | 0.00 | 0.00 | 0.00 | 89 | 1014.0 |
| 20260510053929 | 72 | 322 | 0.0 | 0.0 | 0.00 | 0.00 | 0.00 | 89 | 1014.0 |
| 20260510053429 | 72 | 333 | 1.0 | 2.0 | 0.00 | 0.00 | 0.00 | 89 | 1014.0 |
| 20260510052936 | 72 | 296 | 1.0 | 2.0 | 0.00 | 0.00 | 0.00 | 89 | 1014.0 |
| 20260510052429 | 72 | 221 | 1.0 | 1.0 | 0.00 | 0.00 | 0.00 | 89 | 1014.0 |
| 20260510051929 | 72 | 157 | 0.0 | 1.0 | 0.00 | 0.00 | 0.00 | 89 | 1013.0 |
| 20260510051431 | 72 | 194 | 1.0 | 2.0 | 0.00 | 0.00 | 0.00 | 89 | 1014.0 |
| 20260510050929 | 72 | 155 | 2.0 | 3.0 | 0.00 | 0.00 | 0.00 | 89 | 1014.0 |
| 20260510050429 | 72 | 118 | 4.0 | 5.0 | 0.00 | 0.00 | 0.00 | 89 | 1013.0 |
| 20260510045929 | 72 | 129 | 4.0 | 5.0 | 0.00 | 0.00 | 0.77 | 89 | 1013.0 |
| 20260510045429 | 72 | 136 | 4.0 | 5.0 | 0.00 | 0.00 | 0.77 | 89 | 1013.0 |
| 20260510044929 | 72 | 161 | 3.0 | 4.0 | 0.00 | 0.00 | 0.77 | 89 | 1014.0 |
| 20260510044429 | 72 | 186 | 3.0 | 4.0 | 0.00 | 0.00 | 0.77 | 89 | 1014.0 |
| 20260510043929 | 72 | 159 | 2.0 | 4.0 | 0.00 | 0.00 | 0.77 | 89 | 1014.0 |
| 20260510043429 | 72 | 192 | 2.0 | 3.0 | 0.00 | 0.00 | 0.77 | 89 | 1014.0 |
| 20260510042929 | 72 | 194 | 2.0 | 4.0 | 0.00 | 0.00 | 0.77 | 89 | 1014.0 |
| 20260510042429 | 72 | 230 | 2.0 | 3.0 | 0.00 | 0.00 | 0.77 | 89 | 1014.0 |
| 20260510041930 | 72 | 230 | 2.0 | 3.0 | 0.00 | 0.00 | 0.77 | 89 | 1014.0 |
| 20260510041429 | 72 | 262 | 1.0 | 1.0 | 0.00 | 0.00 | 0.77 | 89 | 1014.0 |
| 20260510040929 | 72 | 220 | 2.0 | 3.0 | 0.00 | 0.00 | 0.77 | 89 | 1014.0 |
| 20260510040429 | 72 | 199 | 2.0 | 3.0 | 0.02 | 0.00 | 0.76 | 89 | 1014.0 |
| 20260510035929 | 72 | 217 | 2.0 | 3.0 | 0.01 | 0.00 | 0.76 | 89 | 1014.0 |
| 20260510035429 | 72 | 200 | 3.0 | 3.0 | 0.02 | 0.00 | 0.76 | 89 | 1014.0 |
| 20260510034929 | 72 | 238 | 3.0 | 4.0 | 0.00 | 0.00 | 0.76 | 89 | 1015.0 |
| 20260510034429 | 71 | 238 | 2.0 | 2.0 | 0.00 | 0.00 | 0.76 | 89 | 1015.0 |
| 20260510033930 | 71 | 280 | 0.0 | 1.0 | 0.00 | 0.00 | 0.76 | 89 | 1014.0 |
| 20260510033429 | 71 | 243 | 1.0 | 1.0 | 0.00 | 0.00 | 0.76 | 89 | 1014.0 |
| 20260510032929 | 71 | 293 | 0.0 | 0.0 | 0.00 | 0.00 | 0.76 | 89 | 1014.0 |
| 20260510032429 | 72 | 193 | 2.0 | 2.0 | 0.00 | 0.00 | 0.76 | 89 | 1014.0 |
| 20260510031929 | 72 | 174 | 1.0 | 2.0 | 0.00 | 0.00 | 0.76 | 89 | 1014.0 |
| 20260510031429 | 72 | 195 | 1.0 | 2.0 | 0.00 | 0.00 | 0.76 | 89 | 1014.0 |
| 20260510030930 | 72 | 189 | 1.0 | 2.0 | 0.00 | 0.00 | 0.76 | 89 | 1014.0 |
| 20260510030429 | 72 | 139 | 2.0 | 3.0 | 0.00 | 0.00 | 0.76 | 89 | 1014.0 |
| 20260510025929 | 72 | 162 | 2.0 | 3.0 | 0.00 | 0.00 | 0.76 | 89 | 1014.0 |
| 20260510025429 | 72 | 174 | 2.0 | 3.0 | 0.00 | 0.00 | 0.76 | 89 | 1014.0 |
| 20260510024929 | 72 | 142 | 3.0 | 3.0 | 0.00 | 0.00 | 0.76 | 89 | 1014.0 |
| 20260510024429 | 72 | 139 | 2.0 | 3.0 | 0.00 | 0.00 | 0.76 | 89 | 1014.0 |
| 20260510023929 | 72 | 128 | 4.0 | 5.0 | 0.00 | 0.00 | 0.76 | 89 | 1014.0 |
| 20260510023429 | 72 | 138 | 4.0 | 6.0 | 0.00 | 0.00 | 0.76 | 89 | 1013.0 |
| 20260510022929 | 72 | 132 | 5.0 | 6.0 | 0.00 | 0.00 | 0.76 | 89 | 1013.0 |
| 20260510022429 | 72 | 132 | 5.0 | 7.0 | 0.00 | 0.00 | 0.76 | 89 | 1013.0 |
| 20260510021929 | 72 | 162 | 3.0 | 4.0 | 0.00 | 0.00 | 0.76 | 89 | 1013.0 |
| 20260510021429 | 72 | 152 | 4.0 | 5.0 | 0.00 | 0.00 | 0.76 | 89 | 1013.0 |
| 20260510020929 | 72 | 144 | 4.0 | 5.0 | 0.00 | 0.00 | 0.76 | 89 | 1013.0 |
| 20260510020429 | 72 | 144 | 4.0 | 6.0 | 0.00 | 0.00 | 0.76 | 89 | 1014.0 |
| 20260510015929 | 72 | 153 | 4.0 | 5.0 | 0.00 | 0.00 | 0.76 | 89 | 1014.0 |
| 20260510015429 | 72 | 176 | 3.0 | 4.0 | 0.00 | 0.00 | 0.76 | 89 | 1014.0 |
| 20260510014929 | 72 | 176 | 3.0 | 4.0 | 0.00 | 0.00 | 0.76 | 89 | 1014.0 |
| 20260510014429 | 72 | 188 | 3.0 | 4.0 | 0.00 | 0.00 | 0.76 | 89 | 1014.0 |
| 20260510013929 | 72 | 188 | 3.0 | 4.0 | 0.00 | 0.00 | 0.76 | 89 | 1014.0 |
| 20260510013429 | 72 | 171 | 3.0 | 4.0 | 0.00 | 0.00 | 0.76 | 88 | 1014.0 |
| 20260510012929 | 72 | 185 | 3.0 | 5.0 | 0.00 | 0.00 | 0.76 | 88 | 1014.0 |
| 20260510012430 | 72 | 192 | 3.0 | 4.0 | 0.00 | 0.00 | 0.76 | 88 | 1014.0 |
| 20260510011929 | 72 | 158 | 3.0 | 4.0 | 0.00 | 0.00 | 0.76 | 88 | 1014.0 |
| 20260510011429 | 72 | 214 | 1.0 | 2.0 | 0.00 | 0.00 | 0.76 | 88 | 1014.0 |
| 20260510010929 | 72 | 158 | 2.0 | 3.0 | 0.00 | 0.00 | 0.76 | 88 | 1014.0 |
| 20260510010429 | 72 | 167 | 4.0 | 5.0 | 0.00 | 0.00 | 0.76 | 88 | 1014.0 |
| 20260510005929 | 72 | 137 | 6.0 | 8.0 | 0.00 | 0.00 | 0.77 | 88 | 1014.0 |
| 20260510005429 | 72 | 137 | 8.0 | 10.0 | 0.00 | 0.00 | 0.77 | 88 | 1013.0 |
| 20260510004930 | 72 | 139 | 8.0 | 10.0 | 0.00 | 0.00 | 0.77 | 88 | 1013.0 |
| 20260510004429 | 72 | 129 | 10.0 | 14.0 | 0.00 | 0.00 | 0.77 | 88 | 1013.0 |
| 20260510003929 | 72 | 136 | 6.0 | 9.0 | 0.00 | 0.00 | 0.77 | 88 | 1013.0 |
| 20260510003429 | 72 | 148 | 7.0 | 10.0 | 0.00 | 0.00 | 0.77 | 88 | 1013.0 |
| 20260510002929 | 72 | 137 | 7.0 | 10.0 | 0.00 | 0.00 | 0.77 | 88 | 1013.0 |
| 20260510002429 | 72 | 137 | 6.0 | 8.0 | 0.00 | 0.00 | 0.77 | 88 | 1013.0 |
| 20260510001929 | 72 | 144 | 4.0 | 6.0 | 0.00 | 0.00 | 0.77 | 88 | 1013.0 |
| 20260510001429 | 72 | 137 | 6.0 | 8.0 | 0.00 | 0.00 | 0.77 | 88 | 1013.0 |
| 20260510000929 | 72 | 143 | 6.0 | 8.0 | 0.00 | 0.00 | 0.77 | 88 | 1013.0 |
| 20260510000429 | 72 | 141 | 6.0 | 8.0 | 0.00 | 0.00 | 0.77 | 88 | 1013.0 |
| 20260509235929 | 72 | 130 | 6.0 | 7.0 | 0.00 | 0.00 | 0.77 | 88 | 1013.0 |
| 20260509235430 | 72 | 126 | 5.0 | 7.0 | 0.00 | 0.00 | 0.77 | 88 | 1013.0 |
| 20260509234929 | 71 | 128 | 5.0 | 7.0 | 0.00 | 0.00 | 0.77 | 88 | 1013.0 |
| 20260509234430 | 71 | 129 | 5.0 | 7.0 | 0.00 | 0.00 | 0.77 | 88 | 1013.0 |
| 20260509233930 | 71 | 134 | 4.0 | 6.0 | 0.00 | 0.00 | 0.77 | 88 | 1013.0 |
| 20260509233429 | 71 | 134 | 3.0 | 4.0 | 0.00 | 0.00 | 0.77 | 88 | 1013.0 |
| 20260509232929 | 71 | 111 | 3.0 | 3.0 | 0.00 | 0.00 | 0.77 | 88 | 1013.0 |
| 20260509232429 | 71 | 110 | 2.0 | 4.0 | 0.00 | 0.00 | 0.77 | 88 | 1013.0 |
| 20260509231929 | 71 | 122 | 3.0 | 4.0 | 0.00 | 0.00 | 0.75 | 87 | 1013.0 |
| 20260509231431 | 71 | 91 | 4.0 | 5.0 | 0.01 | 0.00 | 0.75 | 87 | 1013.0 |
| 20260509230929 | 71 | 85 | 3.0 | 4.0 | 0.00 | 0.00 | 0.75 | 87 | 1013.0 |
| 20260509230429 | 72 | 99 | 4.0 | 5.0 | 0.00 | 0.00 | 0.75 | 87 | 1013.0 |
| 20260509225929 | 72 | 110 | 3.0 | 4.0 | 0.00 | 0.00 | 0.75 | 87 | 1013.0 |
| 20260509225430 | 72 | 125 | 4.0 | 5.0 | 0.00 | 0.00 | 0.75 | 87 | 1013.0 |
| 20260509224929 | 72 | 112 | 4.0 | 5.0 | 0.00 | 0.00 | 0.75 | 87 | 1013.0 |
| 20260509224429 | 72 | 122 | 3.0 | 5.0 | 0.00 | 0.00 | 0.75 | 87 | 1013.0 |
| 20260509223930 | 72 | 117 | 3.0 | 4.0 | 0.00 | 0.00 | 0.75 | 87 | 1013.0 |
| 20260509223429 | 72 | 121 | 4.0 | 6.0 | 0.00 | 0.00 | 0.75 | 87 | 1013.0 |
| 20260509222930 | 72 | 107 | 4.0 | 6.0 | 0.00 | 0.00 | 0.75 | 87 | 1013.0 |
| 20260509222429 | 72 | 117 | 4.0 | 6.0 | 0.00 | 0.00 | 0.75 | 87 | 1013.0 |
| 20260509221929 | 72 | 137 | 4.0 | 5.0 | 0.00 | 0.00 | 0.75 | 87 | 1013.0 |
| 20260509221429 | 72 | 124 | 5.0 | 6.0 | 0.00 | 0.00 | 0.75 | 87 | 1013.0 |
| 20260509220929 | 72 | 127 | 4.0 | 6.0 | 0.00 | 0.00 | 0.75 | 87 | 1013.0 |
| 20260509220429 | 72 | 125 | 5.0 | 6.0 | 0.00 | 0.00 | 0.75 | 87 | 1013.0 |
| 20260509215929 | 72 | 152 | 4.0 | 6.0 | 0.00 | 0.00 | 0.75 | 87 | 1013.0 |
| 20260509215429 | 72 | 122 | 3.0 | 4.0 | 0.00 | 0.00 | 0.75 | 87 | 1013.0 |
| 20260509214929 | 72 | 128 | 3.0 | 5.0 | 0.00 | 0.00 | 0.75 | 86 | 1013.0 |
| 20260509214429 | 72 | 134 | 2.0 | 4.0 | 0.00 | 0.00 | 0.75 | 86 | 1013.0 |